»·PEaware :: N4657 KLAS-L77

N4657 :: KLAS-L77

FLIGHT INFORMATION

Flight Status: Arrived
Operator: Privately registered:
United States
More flights under this callsign
Pilot: Daniel P. (20187)
Aircraft: PILATUS PC-12 EAGLE
(PC12)
More flights by this aircraft type
Origin: KLAS McCarran Intl
United States
Destination: L77 Chiriaco Summit
United States
More flights between these airports :: More routes between these airports
Route: +BOACH8 TNP
File this flight plan on PilotEdge
Remarks:
Altitude:
(Current/Filed)
130ft
Speed:
(Current/Filed)
190kts
Departed: 21-Sep-18 01:57 PM
Arrived: 21-Sep-18 02:41 PM
Distance/Time
Traveled:
148nm/0:44
Distance/Time
To Go:
Arrived

Flight Plot

Page will automatically refresh every two minutes.

Flight plan parsing failed; only flown route is shown


Map Options




Map Legend


Flown Route
Filed Route
Departure Airport
Arrival Airport
Navaid (VOR, NDB)
Fix

Horizontal Profiles

Position Reports

Time Latitude Longitude Heading Altitude Ground
Speed
21-Sep-18 13:01 36.091268 -115.164855 70 2127ft 0kts
21-Sep-18 13:02 36.091268 -115.164855 70 2127ft 0kts
21-Sep-18 13:03 36.091268 -115.164855 70 2127ft 0kts
21-Sep-18 13:04 36.091268 -115.164855 70 2127ft 0kts
21-Sep-18 13:05 36.091268 -115.164855 70 2127ft 0kts
21-Sep-18 13:06 36.091268 -115.164855 70 2127ft 0kts
21-Sep-18 13:07 36.091268 -115.164855 70 2127ft 0kts
21-Sep-18 13:08 36.091268 -115.164855 70 2127ft 0kts
21-Sep-18 13:09 36.091268 -115.164855 70 2127ft 0kts
21-Sep-18 13:10 36.091268 -115.164855 70 2127ft 0kts
21-Sep-18 13:11 36.091268 -115.164855 70 2127ft 0kts
21-Sep-18 13:12 36.091268 -115.164855 70 2127ft 0kts
21-Sep-18 13:13 36.091268 -115.164855 70 2127ft 0kts
21-Sep-18 13:14 36.091268 -115.164855 70 2127ft 0kts
21-Sep-18 13:15 36.091268 -115.164855 70 2127ft 0kts
21-Sep-18 13:16 36.091268 -115.164855 70 2127ft 0kts
21-Sep-18 13:17 36.091268 -115.164855 70 2127ft 0kts
21-Sep-18 13:18 36.091268 -115.164855 70 2127ft 0kts
21-Sep-18 13:19 36.091268 -115.164855 70 2127ft 0kts
21-Sep-18 13:20 36.091268 -115.164855 70 2127ft 0kts
21-Sep-18 13:21 36.091268 -115.164855 70 2127ft 0kts
21-Sep-18 13:22 36.091268 -115.164855 70 2127ft 0kts
21-Sep-18 13:23 36.091268 -115.164855 70 2127ft 0kts
21-Sep-18 13:24 36.091268 -115.164855 70 2127ft 0kts
21-Sep-18 13:25 36.091268 -115.164855 70 2127ft 0kts
21-Sep-18 13:26 36.091268 -115.164855 70 2127ft 0kts
21-Sep-18 13:27 36.091268 -115.164855 70 2127ft 0kts
21-Sep-18 13:28 36.091268 -115.164855 70 2127ft 0kts
21-Sep-18 13:29 36.091268 -115.164855 70 2127ft 0kts
21-Sep-18 13:30 36.091268 -115.164855 70 2127ft 0kts
21-Sep-18 13:31 36.091268 -115.164855 70 2127ft 0kts
21-Sep-18 13:32 36.091268 -115.164855 70 2127ft 0kts
21-Sep-18 13:33 36.091268 -115.164855 70 2127ft 0kts
21-Sep-18 13:34 36.091268 -115.164855 70 2127ft 0kts
21-Sep-18 13:35 36.091268 -115.164855 70 2127ft 0kts
21-Sep-18 13:36 36.091268 -115.164855 70 2127ft 0kts
21-Sep-18 13:37 36.091268 -115.164855 70 2127ft 0kts
21-Sep-18 13:38 36.091268 -115.164855 70 2127ft 0kts
21-Sep-18 13:39 36.091268 -115.164855 70 2127ft 0kts
21-Sep-18 13:40 36.091268 -115.164855 70 2127ft 0kts
21-Sep-18 13:41 36.091268 -115.164855 70 2127ft 0kts
21-Sep-18 13:42 36.091268 -115.164855 70 2127ft 0kts
21-Sep-18 13:43 36.091268 -115.164855 70 2127ft 0kts
21-Sep-18 13:44 36.091268 -115.164855 70 2127ft 0kts
21-Sep-18 13:45 36.091268 -115.164855 70 2127ft 0kts
21-Sep-18 13:46 36.091268 -115.164855 70 2127ft 0kts
21-Sep-18 13:47 36.091268 -115.164855 70 2127ft 0kts
21-Sep-18 13:48 36.091268 -115.164855 70 2127ft 0kts
21-Sep-18 13:49 36.091268 -115.164855 70 2127ft 0kts
21-Sep-18 13:50 36.091268 -115.164855 70 2127ft 0kts
21-Sep-18 13:51 36.091268 -115.164855 70 2127ft 0kts
21-Sep-18 13:52 36.091738 -115.163377 26 2120ft 10kts
21-Sep-18 13:53 36.095129 -115.161447 23 2106ft 15kts
21-Sep-18 13:54 36.099227 -115.159112 28 2092ft 13kts
21-Sep-18 13:55 36.099071 -115.157958 114 2087ft 0kts
21-Sep-18 13:56 36.099071 -115.157958 114 2087ft 0kts
21-Sep-18 13:57 36.099071 -115.157958 114 2087ft 0kts
21-Sep-18 13:58 36.098431 -115.157151 202 2086ft 2kts
21-Sep-18 13:59 36.079336 -115.168793 202 2762ft 119kts
21-Sep-18 14:00 36.048633 -115.185745 200 4253ft 134kts
21-Sep-18 14:01 36.008464 -115.219192 237 5032ft 200kts
21-Sep-18 14:02 35.981855 -115.277680 238 6298ft 202kts
21-Sep-18 14:03 35.933615 -115.305750 184 7453ft 198kts
21-Sep-18 14:04 35.880308 -115.312191 184 9233ft 192kts
21-Sep-18 14:05 35.827249 -115.311456 174 10786ft 199kts
21-Sep-18 14:06 35.771128 -115.305066 174 12094ft 206kts
21-Sep-18 14:07 35.713077 -115.298467 174 13016ft 224kts
21-Sep-18 14:08 35.647102 -115.295776 181 13013ft 246kts
21-Sep-18 14:09 35.578061 -115.298447 181 13040ft 250kts
21-Sep-18 14:10 35.508319 -115.301169 181 13039ft 252kts
21-Sep-18 14:11 35.438233 -115.303942 181 13034ft 252kts
21-Sep-18 14:12 35.368237 -115.306708 181 13029ft 252kts
21-Sep-18 14:13 35.298192 -115.309471 181 13028ft 253kts
21-Sep-18 14:14 35.228058 -115.312232 181 13027ft 252kts
21-Sep-18 14:15 35.157805 -115.314993 181 13011ft 253kts
21-Sep-18 14:16 35.087523 -115.317751 181 12975ft 253kts
21-Sep-18 14:17 35.017511 -115.320464 181 12946ft 254kts
21-Sep-18 14:18 34.958253 -115.322733 182 12945ft 258kts
21-Sep-18 14:19 34.875201 -115.326000 183 12947ft 261kts
21-Sep-18 14:20 34.814661 -115.328399 183 12972ft 262kts
21-Sep-18 14:21 34.733167 -115.351553 200 13018ft 260kts
21-Sep-18 14:22 34.665140 -115.381415 200 13047ft 261kts
21-Sep-18 14:23 34.610190 -115.405453 200 13060ft 261kts
21-Sep-18 14:24 34.542075 -115.435198 200 13077ft 261kts
21-Sep-18 14:25 34.481804 -115.461454 200 13049ft 263kts
21-Sep-18 14:26 34.412928 -115.491456 200 12990ft 263kts
21-Sep-18 14:27 34.343983 -115.521412 200 12990ft 263kts
21-Sep-18 14:28 34.286635 -115.573343 223 12990ft 261kts
21-Sep-18 14:29 34.233631 -115.633189 223 12983ft 262kts
21-Sep-18 14:30 34.183592 -115.689578 222 12174ft 237kts
21-Sep-18 14:31 34.135850 -115.743178 222 11371ft 234kts
21-Sep-18 14:32 34.077550 -115.764300 175 10721ft 233kts
21-Sep-18 14:33 34.012940 -115.756255 174 10720ft 239kts
21-Sep-18 14:34 33.945670 -115.747305 174 10332ft 249kts
21-Sep-18 14:35 33.877266 -115.738167 174 9850ft 246kts
21-Sep-18 14:36 33.811256 -115.729361 173 9048ft 234kts
21-Sep-18 14:37 33.747472 -115.720835 173 8253ft 230kts
21-Sep-18 14:38 33.689915 -115.713285 173 7142ft 185kts
21-Sep-18 14:39 33.642549 -115.704547 134 5535ft 187kts
21-Sep-18 14:40 33.646401 -115.648936 56 3896ft 162kts
21-Sep-18 14:41 33.673313 -115.663694 254 2550ft 146kts
21-Sep-18 14:42 33.666495 -115.700158 255 1738ft 103kts
21-Sep-18 14:43 33.664421 -115.712721 257 1704ft 13kts
21-Sep-18 14:44 33.663425 -115.718710 262 1710ft 15kts
21-Sep-18 14:45 33.662003 -115.718809 69 1707ft 8kts
21-Sep-18 14:46 33.661764 -115.718784 354 1707ft 0kts
21-Sep-18 14:47 33.661763 -115.718783 353 1707ft 0kts
21-Sep-18 14:48 33.661763 -115.718783 353 1707ft 0kts
21-Sep-18 14:49 33.661763 -115.718783 353 1707ft 0kts
21-Sep-18 14:50 33.661763 -115.718783 353 1707ft 0kts
21-Sep-18 14:51 33.661763 -115.718783 353 1707ft 0kts
21-Sep-18 14:52 33.661763 -115.718783 353 1707ft 0kts
21-Sep-18 14:53 33.661763 -115.718783 353 1707ft 0kts
21-Sep-18 14:54 33.661763 -115.718783 353 1707ft 0kts
21-Sep-18 14:55 33.661763 -115.718783 353 1707ft 0kts
21-Sep-18 14:56 33.661763 -115.718783 353 1707ft 0kts
21-Sep-18 14:57 33.661763 -115.718783 353 1707ft 0kts
21-Sep-18 14:58 33.661763 -115.718783 353 1707ft 0kts

Navigation Log

Ident Type
Flight plan parsing failed, navigation log unavailable